• Join FlightAware (Why Join?)
  • Login
  • US Flag 
12:05PM EDT


 

Airport Tracker/Info


-or-


 

Live Flight TrackerFlight Track Log ✈ CSN3614 ✈ 26-Oct-2013 ✈ ZYMD / MDG - ZSPD / PVG

Flight Track Log - Related Links

Times and Time Zones

All times are in EDT time to prevent confusion due to time zone crossing. See the CSN3614 flight status page for this flight to view local times or setup timezone preferences in your user account.

Time Position Orientation Groundspeed Altitude Reporting Facility
EDT Latitude Longitude Course Direction KTS MPH feet Rate Location/Type
06:34AM 43.6814 128.9727 207° Southwest  Level Estimated
06:35AM 43.5876 128.9075 207° Southwest  Level Estimated
06:36AM 43.4937 128.8425 207° Southwest  Level Estimated
06:37AM 43.3998 128.7777 207° Southwest  Level Estimated
06:38AM 43.3059 128.7131 207° Southwest  Level Estimated
06:39AM 43.2119 128.6487 207° Southwest  Level Estimated
06:40AM 43.1179 128.5845 207° Southwest  Level Estimated
06:41AM 43.0238 128.5205 206° Southwest  Level Estimated
06:42AM 42.9298 128.4567 206° Southwest  Level Estimated
06:43AM 42.8357 128.3931 206° Southwest  Level Estimated
06:44AM 42.7415 128.3296 206° Southwest  Level Estimated
06:45AM 42.6473 128.2664 206° Southwest  Level Estimated
06:46AM 42.5531 128.2034 206° Southwest  Level Estimated
06:47AM 42.4589 128.1405 206° Southwest  Level Estimated
06:48AM 42.3646 128.0779 206° Southwest  Level Estimated
06:49AM 42.2702 128.0154 206° Southwest  Level Estimated
06:50AM 42.1759 127.9531 206° Southwest  Level Estimated
06:51AM 42.0815 127.8910 206° Southwest  Level Estimated
06:52AM 41.9871 127.8291 206° Southwest  Level Estimated
06:53AM 41.8926 127.7673 206° Southwest  Level Estimated
06:54AM 41.7981 127.7058 206° Southwest  Level Estimated
06:55AM 41.7036 127.6444 206° Southwest  Level Estimated
06:56AM 41.6091 127.5832 206° Southwest  Level Estimated
06:57AM 41.5145 127.5222 206° Southwest  Level Estimated
06:58AM 41.4199 127.4614 206° Southwest  Level Estimated
06:59AM 41.3252 127.4007 206° Southwest  Level Estimated
07:00AM 41.2305 127.3402 206° Southwest  Level Estimated
07:01AM 41.1358 127.2799 206° Southwest  Level Estimated
07:02AM 41.0411 127.2198 206° Southwest  Level Estimated
07:03AM 40.9463 127.1598 206° Southwest  Level Estimated
07:04AM 40.8515 127.1001 206° Southwest  Level Estimated
07:05AM 40.7567 127.0404 205° Southwest  Level Estimated
07:06AM 40.6618 126.9810 205° Southwest  Level Estimated
07:07AM 40.5669 126.9217 205° Southwest  Level Estimated
07:08AM 40.4720 126.8626 205° Southwest  Level Estimated
07:09AM 40.3770 126.8036 205° Southwest  Level Estimated
07:10AM 40.2820 126.7449 205° Southwest  Level Estimated
07:11AM 40.1870 126.6863 205° Southwest  Level Estimated
07:12AM 40.0920 126.6278 205° Southwest  Level Estimated
07:13AM 39.9969 126.5695 205° Southwest  Level Estimated
07:14AM 39.9018 126.5114 205° Southwest  Level Estimated
07:15AM 39.8066 126.4535 205° Southwest  Level Estimated
07:16AM 39.7115 126.3957 205° Southwest  Level Estimated
07:17AM 39.6163 126.3380 205° Southwest  Level Estimated
07:18AM 39.5303 126.2861 205° Southwest  Level Estimated
07:19AM 39.4443 126.2343 205° Southwest  Level Estimated
07:20AM 39.3582 126.1826 205° Southwest  Level Estimated
07:21AM 39.2721 126.1311 205° Southwest  Level Estimated
07:22AM 39.1861 126.0797 205° Southwest  Level Estimated
07:23AM 39.0999 126.0284 205° Southwest  Level Estimated
07:24AM 39.0138 125.9772 205° Southwest  Level Estimated
07:25AM 38.9276 125.9261 205° Southwest  Level Estimated
07:26AM 38.8415 125.8752 205° Southwest  Level Estimated
07:27AM 38.7552 125.8244 205° Southwest  Level Estimated
07:28AM 38.6690 125.7738 205° Southwest  Level Estimated
07:29AM 38.5828 125.7232 205° Southwest  Level Estimated
07:30AM 38.4965 125.6728 205° Southwest  Level Estimated
07:31AM 38.4102 125.6225 205° Southwest  Level Estimated
07:32AM 38.3239 125.5723 205° Southwest  Level Estimated
07:33AM 38.2376 125.5222 204° Southwest  Level Estimated
07:34AM 38.1512 125.4723 204° Southwest  Level Estimated
07:35AM 38.0648 125.4224 204° Southwest  Level Estimated
07:36AM 37.9784 125.3727 204° Southwest  Level Estimated
07:37AM 37.8920 125.3231 204° Southwest  Level Estimated
07:38AM 37.8056 125.2736 204° Southwest  Level Estimated
07:39AM 37.7191 125.2243 204° Southwest  Level Estimated
07:40AM 37.6326 125.1750 204° Southwest  Level Estimated
07:41AM 37.5461 125.1259 204° Southwest  Level Estimated
07:42AM 37.4596 125.0769 204° Southwest  Level Estimated
07:43AM 37.3731 125.0279 204° Southwest  Level Estimated
07:44AM 37.2865 124.9791 204° Southwest  Level Estimated
07:45AM 37.1999 124.9305 204° Southwest  Level Estimated
07:46AM 37.1133 124.8819 204° Southwest  Level Estimated
07:47AM 37.0267 124.8334 204° Southwest  Level Estimated
07:48AM 36.9401 124.7851 204° Southwest  Level Estimated
07:49AM 36.8534 124.7368 204° Southwest  Level Estimated
07:50AM 36.7667 124.6887 204° Southwest  Level Estimated
07:51AM 36.6800 124.6407 204° Southwest  Level Estimated
07:52AM 36.5933 124.5928 204° Southwest  Level Estimated
07:53AM 36.5066 124.5450 204° Southwest  Level Estimated
07:54AM 36.4198 124.4973 204° Southwest  Level Estimated
07:55AM 36.3330 124.4497 204° Southwest  Level Estimated
07:56AM 36.2462 124.4022 204° Southwest  Level Estimated
07:57AM 36.1594 124.3548 204° Southwest  Level Estimated
07:58AM 36.0726 124.3075 204° Southwest  Level Estimated
07:59AM 35.9857 124.2604 204° Southwest  Level Estimated
08:00AM 35.8989 124.2133 204° Southwest  Level Estimated
08:01AM 35.8120 124.1663 204° Southwest  Level Estimated
08:02AM 35.7251 124.1195 204° Southwest  Level Estimated
08:03AM 35.6381 124.0727 204° Southwest  Level Estimated
08:04AM 35.5512 124.0260 204° Southwest  Level Estimated
08:05AM 35.4642 123.9795 204° Southwest  Level Estimated
08:06AM 35.3773 123.9330 204° Southwest  Level Estimated
08:07AM 35.2903 123.8867 204° Southwest  Level Estimated
08:08AM 35.2033 123.8404 203° Southwest  Level Estimated
08:09AM 35.1162 123.7942 203° Southwest  Level Estimated
08:10AM 35.0292 123.7482 203° Southwest  Level Estimated
08:11AM 34.9421 123.7022 203° Southwest  Level Estimated
08:12AM 34.8550 123.6563 203° Southwest  Level Estimated
08:13AM 34.7679 123.6106 203° Southwest  Level Estimated
08:14AM 34.6808 123.5649 203° Southwest  Level Estimated
08:15AM 34.5937 123.5193 203° Southwest  Level Estimated
08:16AM 34.5065 123.4738 203° Southwest  Level Estimated
08:17AM 34.4193 123.4285 203° Southwest  Level Estimated
08:18AM 34.3322 123.3832 203° Southwest  Level Estimated
08:19AM 34.2450 123.3380 203° Southwest  Level Estimated
08:19AM 32.0240 122.4630 203° Southwest 441 507 22,800  Level FlightAware
08:19AM 31.9710 122.4880 158° South 447 514 22,200 -480 Descending FlightAware
08:20AM 34.1577 123.2929 203° Southwest  Level Estimated
08:20AM 31.8910 122.5260 158° South 447 514 22,200  Level FlightAware
08:21AM 31.8130 122.5630 158° South 447 514 22,200  Level FlightAware
08:22AM 31.7340 122.6000 158° South 447 514 22,200  Level FlightAware
08:22AM 31.6950 122.6190 157° South 447 514 22,200  Level FlightAware
08:23AM 31.6370 122.6470 158° South 447 514 22,200  Level FlightAware
08:23AM 31.5980 122.6650 159° South 447 514 22,200  Level FlightAware
08:27AM 31.4322 122.3448 239° Southwest  Level Estimated
08:28AM 31.3828 122.2499 239° Southwest  Level Estimated
08:29AM 31.3333 122.1552 239° Southwest  Level Estimated
08:30AM 31.2838 122.0605 239° Southwest  Level Estimated
08:31AM 31.2341 121.9659 238° Southwest  Level Estimated
08:32AM 31.1845 121.8714 238° Southwest  Level Estimated
08:33AM 31.1428 121.7924 238° Southwest  Level Estimated
08:34AM 31.1428 121.7924 221° Southwest  Level Estimated
08:35AM 31.1428 121.7924 221° Southwest  Level Estimated
08:36AM 31.1428 121.7924 221° Southwest  Level Estimated
08:37AM 31.1428 121.7924 221° Southwest  Level Estimated
08:38AM 31.1428 121.7924 221° Southwest  Level Estimated
08:39AM 31.1428 121.7924 221° Southwest  Level Estimated
08:40AM 31.1428 121.7924 221° Southwest  Level Estimated
08:41AM 31.1428 121.7924 221° Southwest  Level Estimated
08:42AM 31.1428 121.7924 221° Southwest  Level Estimated
08:43AM 31.1428 121.7924 221° Southwest  Level Estimated
08:44AM 31.1428 121.7924 221° Southwest  Level Estimated
08:45AM 31.1428 121.7924 221° Southwest  Level Estimated
08:46AM 31.1428 121.7924 221° Southwest  Level Estimated
08:47AM 31.1428 121.7924 221° Southwest  Level Estimated
08:48AM 31.1428 121.7924 221° Southwest  Level Estimated
08:49AM 31.1428 121.7924 221° Southwest  Level Estimated
08:50AM 31.1428 121.7924 221° Southwest  Level Estimated
08:51AM 31.1428 121.7924 221° Southwest  Level Estimated
08:52AM 31.1428 121.7924 221° Southwest  Level Estimated
08:53AM 31.1428 121.7924 221° Southwest  Level Estimated
08:54AM 31.1428 121.7924 221° Southwest  Level Estimated
08:55AM 31.1428 121.7924 221° Southwest  Level Estimated
08:56AM 31.1428 121.7924 221° Southwest  Level Estimated
08:57AM 31.1428 121.7924 221° Southwest  Level Estimated
08:58AM 31.1428 121.7924 221° Southwest  Level Estimated
08:59AM 31.1428 121.7924 221° Southwest  Level Estimated
09:00AM 31.1428 121.7924 221° Southwest  Level Estimated
09:01AM 31.1428 121.7924 221° Southwest  Level Estimated